Airfield :
LOGIN :

Register | Disclaimer

   EN    FR    IT 

 










Legend :    VFR   Marginal VFR   IFR   Intensive IFR   Very Intensive IFR
Visi :
Ceiling :
>= 8 km
>= 3000ft
5 to 8 km
1000 to 3000 ft
1500m to 5 km
500 to 1000 ft
800 to 1500m
200 to 500 ft
< 800m
< 200 ft
Symbols :   Thunderstorms  Fog  Heavy snow  Heavy precipitations  Wind > 20 kt
SIGMETs :     Misc.  Thunderstorms  Icing  Turbulence  Mountain Waves  Volcanic Ashes







- Airport Elevation : 2297 ft


LEGA - Armilla

EXPIRED METARs :
  • 202000Z 28005KT CAVOK 25/10 Q1013

TAF TAF LEGA
Valid from the 20 at 15:00 until the 21 at 00:00 UTC


201400Z 2015/2024 29009KT CAVOK
No reported NOTAMs for that airfield.
1 SIGMET reported for the Madrid FIR (LECM) :
 
Embedded thunderstorms
LECM SIGMET 1 VALID 201949/202200 LEVA
LECM MADRID FIR/UIR EMBD TS OBS AT 1944Z WI N4110 W00150 - N4110 W00050 - N4010 W001 - N4010 W002 TOP FL400 STNR NC=



MET'MAP, your aeronautical weather chart ! - Copyright ORBIFLY December 2007 - Disclaimer

ORBIFLY MET'MAP TEAM :

Programming & Development : Alexandra Zaïnal
Concept & Development : Baudouin d'Aumeries
Co-Development & Prog : Marc-Olivier Méhu
Technical & hardware support : Manuel Goepfert

Contact : metmap@orbifly.com




SOURCES & CREDITS :

   NOAA